Cortez, CO

3:48 PM MDT on May 29, 2015 (GMT -0600)
Kelly Place B&B, McElmo Canyon | | Change Station
CLOSE
Current Station
Personal Weather Station
Location: Cortez, CO
Elevation: 5522 ft
Nearby Weather Stations

Elev 5522 ft 37.34 °N, 108.79 °W | Updated 2 minutes ago

Clear
Clear
82.6 °F
Feels Like 80 °F
N
0.0
Wind Variable Wind from WNW
Gusts 11.6 mph

Today
High -- | Low -- °F
--% Chance of Precip.
Yesterday
High -- | Low -- °F
Precip. -- in
5:57 AM 8:27 PM
Waxing Gibbous, 86% visible
Pressure 30.03 in
Visibility 10.0 miles
Clouds Few 10000 ft
Heat Index 80 °F
Dew Point 38 °F
Humidity 20%
Rainfall 0.00 in
Snow Depth Not available.
UV 11 out of 12
Pollen 6.00 out of 12
Air Quality Not available.
Flu Activity Sporadic
METAR KCEZ 292053Z AUTO 33009G17KT 290V360 10SM FEW100 23/M03 A3019 RMK AO2 SLP168 T02331028 58009

More Conditions Fewer Conditions

Pressure 30.03 in
Visibility 10.0 miles
Clouds Few 10000 ft
Heat Index 80 °F
Dew Point 38 °F
Humidity 20%
Rainfall 0.00 in
Snow Depth Not available.
UV 11 out of 12
Pollen 6.00 out of 12
Air Quality Not available.
Flu Activity Sporadic
METAR KCEZ 292053Z AUTO 33009G17KT 290V360 10SM FEW100 23/M03 A3019 RMK AO2 SLP168 T02331028 58009

More Conditions Fewer Conditions

10-Day Weather Forecast

Almanac

Astronomy

May. 29, 2015 Rise Set
Actual Time
Civil Twilight
Nautical Twilight
Astronomical Twilight
Moon
Length of Visible Light
Length of Day
Tomorrow will be .
, % of the Moon is Illuminated

Today's Extremes

State Highs State Lows

Community

WunderPhotos

Upload Photos

1,825,372 photos uploaded!

WunderBlogs® & News

Nearby

Air Quality

  Air Quality AQ Index Pollutant
Not available.

Snow Depth

Station Depth Elevation

Earthquake Activity

City Distance Mag. Time & Date
Minimum magnitude displayed is 2.5.

Coastal Water Temperatures

Place Temperature

Stations

Nearby Weather Stations

Station Location Temp. Windchill Dew Point Humidity Wind Precip. Elev Updated Type